createdAt,value
2017-11-26T00:00:44.035Z,1010.17
2017-11-26T00:01:44.050Z,1010.17
2017-11-26T00:02:44.067Z,1010.19
2017-11-26T00:03:44.081Z,1010.15
2017-11-26T00:04:44.097Z,1010.16
2017-11-26T00:05:44.113Z,1010.15
2017-11-26T00:06:44.150Z,1010.16
2017-11-26T00:07:44.145Z,1010.21
2017-11-26T00:08:44.161Z,1010.23
2017-11-26T00:09:44.178Z,1010.19
2017-11-26T00:10:44.193Z,1010.24
2017-11-26T00:11:44.210Z,1010.17
2017-11-26T00:12:44.225Z,1010.17
2017-11-26T00:13:44.242Z,1010.22
2017-11-26T00:14:44.259Z,1010.24
2017-11-26T00:15:44.273Z,1010.20
2017-11-26T00:16:44.296Z,1010.30
2017-11-26T00:17:44.307Z,1010.25
2017-11-26T00:18:44.321Z,1010.26
2017-11-26T00:19:44.342Z,1010.30
2017-11-26T00:20:44.354Z,1010.30
2017-11-26T00:21:44.370Z,1010.32
2017-11-26T00:22:44.386Z,1010.31
2017-11-26T00:23:44.408Z,1010.29
2017-11-26T00:24:44.417Z,1010.27
2017-11-26T00:25:44.435Z,1010.31
2017-11-26T00:26:44.452Z,1010.31
2017-11-26T00:27:44.468Z,1010.27
2017-11-26T00:28:44.481Z,1010.28
2017-11-26T00:29:44.498Z,1010.27
2017-11-26T00:30:44.520Z,1010.30
2017-11-26T00:31:44.529Z,1010.28
2017-11-26T00:32:44.586Z,1010.28
2017-11-26T00:33:44.562Z,1010.26
2017-11-26T00:34:44.578Z,1010.28
2017-11-26T00:35:44.593Z,1010.30
2017-11-26T00:36:44.610Z,1010.30
2017-11-26T00:37:44.636Z,1010.29
2017-11-26T00:38:44.641Z,1010.33
2017-11-26T00:39:44.657Z,1010.24
2017-11-26T00:40:44.673Z,1010.33
2017-11-26T00:41:44.689Z,1010.22
2017-11-26T00:42:44.712Z,1010.25
2017-11-26T00:43:44.721Z,1010.21
2017-11-26T00:44:44.737Z,1010.24
2017-11-26T00:45:44.758Z,1010.25
2017-11-26T00:46:44.769Z,1010.21
2017-11-26T00:47:44.785Z,1010.27
2017-11-26T00:48:44.800Z,1010.28
2017-11-26T00:49:44.817Z,1010.32
2017-11-26T00:50:44.835Z,1010.31
2017-11-26T00:51:44.949Z,1010.31
2017-11-26T00:52:44.865Z,1010.39
2017-11-26T00:53:44.880Z,1010.35
2017-11-26T00:54:44.899Z,1010.39
2017-11-26T00:55:44.912Z,1010.33
2017-11-26T00:56:44.928Z,1010.35
2017-11-26T00:57:44.945Z,1010.37
2017-11-26T00:58:44.961Z,1010.35
2017-11-26T00:59:44.981Z,1010.39
2017-11-26T01:00:44.991Z,1010.34
2017-11-26T01:01:45.009Z,1010.28
2017-11-26T01:02:45.023Z,1010.28
2017-11-26T01:03:45.039Z,1010.24
2017-11-26T01:04:45.055Z,1010.25
2017-11-26T01:05:45.072Z,1010.24
2017-11-26T01:06:45.088Z,1010.22
2017-11-26T01:07:45.108Z,1010.28
2017-11-26T01:08:45.119Z,1010.29
2017-11-26T01:09:45.135Z,1010.22
2017-11-26T01:10:45.152Z,1010.25
2017-11-26T01:11:45.167Z,1010.27
2017-11-26T01:12:45.182Z,1010.25
2017-11-26T01:13:45.199Z,1010.26
2017-11-26T01:14:45.214Z,1010.28
2017-11-26T01:15:45.230Z,1010.26
2017-11-26T01:16:45.245Z,1010.29
2017-11-26T01:17:45.262Z,1010.28
2017-11-26T01:18:45.279Z,1010.31
2017-11-26T01:19:45.293Z,1010.30
2017-11-26T01:20:45.310Z,1010.37
2017-11-26T01:21:45.325Z,1010.40
2017-11-26T01:22:45.342Z,1010.43
2017-11-26T01:23:45.362Z,1010.49
2017-11-26T01:24:45.374Z,1010.50
2017-11-26T01:25:45.388Z,1010.53
2017-11-26T01:26:45.413Z,1010.49
2017-11-26T01:27:45.419Z,1010.48
2017-11-26T01:28:45.439Z,1010.43
2017-11-26T01:29:45.452Z,1010.46
2017-11-26T01:30:45.469Z,1010.46
2017-11-26T01:31:45.486Z,1010.46
2017-11-26T01:32:45.499Z,1010.46
2017-11-26T01:33:45.516Z,1010.42
2017-11-26T01:34:45.532Z,1010.42
2017-11-26T01:35:45.546Z,1010.48
2017-11-26T01:36:45.562Z,1010.49
2017-11-26T01:37:45.578Z,1010.53
2017-11-26T01:38:45.596Z,1010.50
2017-11-26T01:39:45.609Z,1010.49
2017-11-26T01:40:45.625Z,1010.47
2017-11-26T01:41:45.643Z,1010.46
2017-11-26T01:42:45.657Z,1010.44
2017-11-26T01:43:45.672Z,1010.49
2017-11-26T01:44:45.697Z,1010.46
2017-11-26T01:45:45.704Z,1010.51
2017-11-26T01:46:45.721Z,1010.54
2017-11-26T01:47:45.736Z,1010.52
2017-11-26T01:48:45.753Z,1010.57
2017-11-26T01:49:45.766Z,1010.63
2017-11-26T01:50:45.784Z,1010.54
2017-11-26T01:51:45.799Z,1010.51
2017-11-26T01:52:45.813Z,1010.47
2017-11-26T01:53:45.829Z,1010.48
2017-11-26T01:54:45.846Z,1010.50
2017-11-26T01:55:45.861Z,1010.51
2017-11-26T01:56:45.875Z,1010.49
2017-11-26T01:57:45.893Z,1010.50
2017-11-26T01:58:45.908Z,1010.51
2017-11-26T01:59:45.923Z,1010.51
2017-11-26T02:00:45.939Z,1010.54
2017-11-26T02:01:45.954Z,1010.54
2017-11-26T02:02:45.971Z,1010.54
2017-11-26T02:03:45.984Z,1010.57
2017-11-26T02:04:46.000Z,1010.54
2017-11-26T02:05:46.018Z,1010.56
2017-11-26T02:06:46.033Z,1010.59
2017-11-26T02:07:46.048Z,1010.57
2017-11-26T02:08:46.064Z,1010.57
2017-11-26T02:09:46.079Z,1010.58
2017-11-26T02:10:46.096Z,1010.64
2017-11-26T02:11:46.111Z,1010.69
2017-11-26T02:12:46.127Z,1010.58
2017-11-26T02:13:46.144Z,1010.65
2017-11-26T02:14:46.160Z,1010.63
2017-11-26T02:15:46.173Z,1010.65
2017-11-26T02:16:46.191Z,1010.65
2017-11-26T02:17:46.206Z,1010.64
2017-11-26T02:18:46.222Z,1010.67
2017-11-26T02:19:46.236Z,1010.64
2017-11-26T02:20:46.253Z,1010.64
2017-11-26T02:21:46.272Z,1010.67
2017-11-26T02:22:46.285Z,1010.65
2017-11-26T02:23:46.299Z,1010.61
2017-11-26T02:24:46.331Z,1010.61
2017-11-26T02:25:46.333Z,1010.61
2017-11-26T02:26:46.348Z,1010.57
2017-11-26T02:27:46.364Z,1010.58
2017-11-26T02:28:46.379Z,1010.54
2017-11-26T02:29:46.395Z,1010.53
2017-11-26T02:30:46.410Z,1010.49
2017-11-26T02:31:46.432Z,1010.52
2017-11-26T02:32:46.442Z,1010.47
2017-11-26T02:33:46.458Z,1010.50
2017-11-26T02:34:46.474Z,1010.55
2017-11-26T02:35:46.491Z,1010.62
2017-11-26T02:36:46.512Z,1010.64
2017-11-26T02:37:46.523Z,1010.70
2017-11-26T02:38:46.539Z,1010.76
2017-11-26T02:39:46.564Z,1010.78
2017-11-26T02:40:46.571Z,1010.74
2017-11-26T02:41:46.585Z,1010.67
2017-11-26T02:42:46.603Z,1010.68
2017-11-26T02:43:46.623Z,1010.66
2017-11-26T02:44:46.633Z,1010.60
2017-11-26T02:45:46.651Z,1010.64
2017-11-26T02:46:46.664Z,1010.58
2017-11-26T02:47:46.681Z,1010.61
2017-11-26T02:48:46.700Z,1010.55
2017-11-26T02:49:46.712Z,1010.60
2017-11-26T02:50:46.730Z,1010.60
2017-11-26T02:51:46.745Z,1010.57
2017-11-26T02:52:46.763Z,1010.56
2017-11-26T02:53:46.779Z,1010.62
2017-11-26T02:54:46.792Z,1010.63
2017-11-26T02:55:46.807Z,1010.63
2017-11-26T02:56:46.824Z,1010.63
2017-11-26T02:57:46.840Z,1010.66
2017-11-26T02:58:46.856Z,1010.65
2017-11-26T02:59:46.871Z,1010.71
2017-11-26T03:00:46.887Z,1010.65
2017-11-26T03:01:46.910Z,1010.63
2017-11-26T03:02:46.918Z,1010.68
2017-11-26T03:03:46.935Z,1010.69
2017-11-26T03:04:46.951Z,1010.74
2017-11-26T03:05:46.965Z,1010.72
2017-11-26T03:06:46.982Z,1010.71
2017-11-26T03:07:46.999Z,1010.68
2017-11-26T03:08:47.015Z,1010.72
2017-11-26T03:09:47.029Z,1010.69
2017-11-26T03:10:47.044Z,1010.68
2017-11-26T03:11:47.059Z,1010.71
2017-11-26T03:12:47.075Z,1010.67
2017-11-26T03:13:47.091Z,1010.67
2017-11-26T03:14:47.109Z,1010.67
2017-11-26T03:15:47.122Z,1010.66
2017-11-26T03:16:47.142Z,1010.70
2017-11-26T03:17:47.155Z,1010.73
2017-11-26T03:18:47.170Z,1010.64
2017-11-26T03:19:47.187Z,1010.72
2017-11-26T03:20:47.201Z,1010.69
2017-11-26T03:21:47.219Z,1010.74
2017-11-26T03:22:47.233Z,1010.72
2017-11-26T03:23:47.250Z,1010.79
2017-11-26T03:24:47.265Z,1010.77
2017-11-26T03:25:47.281Z,1010.76
2017-11-26T03:26:47.298Z,1010.72
2017-11-26T03:27:47.311Z,1010.75
2017-11-26T03:28:47.328Z,1010.81
2017-11-26T03:29:47.344Z,1010.79
2017-11-26T03:30:47.369Z,1010.79
2017-11-26T03:31:47.377Z,1010.81
2017-11-26T03:32:47.392Z,1010.75
2017-11-26T03:33:47.412Z,1010.78
2017-11-26T03:34:47.424Z,1010.85
2017-11-26T03:35:47.439Z,1010.83
2017-11-26T03:36:47.454Z,1010.89
2017-11-26T03:37:47.471Z,1010.89
2017-11-26T03:38:47.487Z,1010.87
2017-11-26T03:39:47.507Z,1010.81
2017-11-26T03:40:47.519Z,1010.81
2017-11-26T03:41:47.532Z,1010.84
2017-11-26T03:42:47.549Z,1010.80
2017-11-26T03:43:47.566Z,1010.81
2017-11-26T03:44:47.581Z,1010.80
2017-11-26T03:45:47.605Z,1010.82
2017-11-26T03:46:47.613Z,1010.76
2017-11-26T03:47:47.629Z,1010.83
2017-11-26T03:48:47.644Z,1010.85
2017-11-26T03:49:47.670Z,1010.86
2017-11-26T03:50:47.676Z,1010.81
2017-11-26T03:51:47.698Z,1010.74
2017-11-26T03:52:47.710Z,1010.72
2017-11-26T03:53:47.725Z,1010.74
2017-11-26T03:54:47.740Z,1010.73
2017-11-26T03:55:47.763Z,1010.73
2017-11-26T03:56:47.773Z,1010.73
2017-11-26T03:57:47.788Z,1010.75
2017-11-26T03:58:47.804Z,1010.69
2017-11-26T03:59:47.820Z,1010.74
2017-11-26T04:00:47.986Z,1010.71
2017-11-26T04:01:47.850Z,1010.76
2017-11-26T04:02:47.867Z,1010.75
2017-11-26T04:03:47.882Z,1010.74
2017-11-26T04:04:47.898Z,1010.76
2017-11-26T04:05:47.915Z,1010.76
2017-11-26T04:06:47.932Z,1010.78
2017-11-26T04:07:47.946Z,1010.74
2017-11-26T04:08:47.961Z,1010.74
2017-11-26T04:09:47.979Z,1010.80
2017-11-26T04:10:47.994Z,1010.74
2017-11-26T04:11:48.014Z,1010.75
2017-11-26T04:12:48.025Z,1010.72
2017-11-26T04:13:48.041Z,1010.69
2017-11-26T04:14:48.057Z,1010.67
2017-11-26T04:15:48.072Z,1010.67
2017-11-26T04:16:48.089Z,1010.66
2017-11-26T04:17:48.109Z,1010.69
2017-11-26T04:18:48.120Z,1010.71
2017-11-26T04:19:48.135Z,1010.70
2017-11-26T04:20:48.153Z,1010.70
2017-11-26T04:21:48.168Z,1010.69
2017-11-26T04:22:48.184Z,1010.72
2017-11-26T04:23:48.200Z,1010.70
2017-11-26T04:24:48.216Z,1010.72
2017-11-26T04:25:48.232Z,1010.70
2017-11-26T04:26:48.252Z,1010.68
2017-11-26T04:27:48.263Z,1010.75
2017-11-26T04:28:48.280Z,1010.77
2017-11-26T04:29:48.294Z,1010.73
2017-11-26T04:30:48.312Z,1010.75
2017-11-26T04:31:48.327Z,1010.84
2017-11-26T04:32:48.341Z,1010.74
2017-11-26T04:33:48.359Z,1010.70
2017-11-26T04:34:48.373Z,1010.71
2017-11-26T04:35:48.391Z,1010.69
2017-11-26T04:36:48.405Z,1010.65
2017-11-26T04:37:48.422Z,1010.74
2017-11-26T04:38:48.437Z,1010.66
2017-11-26T04:39:48.453Z,1010.64
2017-11-26T04:40:48.468Z,1010.65
2017-11-26T04:41:48.485Z,1010.58
2017-11-26T04:42:48.501Z,1010.60
2017-11-26T04:43:48.517Z,1010.53
2017-11-26T04:44:48.532Z,1010.57
2017-11-26T04:45:48.549Z,1010.59
2017-11-26T04:46:48.564Z,1010.55
2017-11-26T04:47:48.580Z,1010.56
2017-11-26T04:48:48.595Z,1010.56
2017-11-26T04:49:48.611Z,1010.48
2017-11-26T04:50:48.630Z,1010.51
2017-11-26T04:51:48.643Z,1010.54
2017-11-26T04:52:48.659Z,1010.54
2017-11-26T04:53:48.674Z,1010.54
2017-11-26T04:54:48.691Z,1010.51
2017-11-26T04:55:48.705Z,1010.52
2017-11-26T04:56:48.722Z,1010.54
2017-11-26T04:57:48.737Z,1010.52
2017-11-26T04:58:48.755Z,1010.55
2017-11-26T04:59:48.769Z,1010.53
2017-11-26T05:00:48.787Z,1010.58
2017-11-26T05:01:48.801Z,1010.53
2017-11-26T05:02:48.820Z,1010.55
2017-11-26T05:03:48.834Z,1010.54
2017-11-26T05:04:48.847Z,1010.52
2017-11-26T05:05:48.865Z,1010.53
2017-11-26T05:06:48.880Z,1010.48
2017-11-26T05:07:48.894Z,1010.60
2017-11-26T05:08:48.920Z,1010.55
2017-11-26T05:09:48.927Z,1010.59
2017-11-26T05:10:48.943Z,1010.54
2017-11-26T05:11:48.957Z,1010.54
2017-11-26T05:12:48.980Z,1010.57
2017-11-26T05:13:48.990Z,1010.49
2017-11-26T05:14:49.006Z,1010.56
2017-11-26T05:15:49.020Z,1010.49
2017-11-26T05:16:49.138Z,1010.49
2017-11-26T05:17:49.061Z,1010.47
2017-11-26T05:18:49.069Z,1010.45
2017-11-26T05:19:49.084Z,1010.51
2017-11-26T05:20:49.101Z,1010.48
2017-11-26T05:21:49.116Z,1010.48
2017-11-26T05:22:49.134Z,1010.52
2017-11-26T05:23:49.147Z,1010.49
2017-11-26T05:24:49.164Z,1010.45
2017-11-26T05:25:49.178Z,1010.53
2017-11-26T05:26:49.196Z,1010.57
2017-11-26T05:27:49.210Z,1010.55
2017-11-26T05:28:49.225Z,1010.44
2017-11-26T05:29:49.242Z,1010.45
2017-11-26T05:30:49.258Z,1010.48
2017-11-26T05:31:49.273Z,1010.51
2017-11-26T05:32:49.296Z,1010.54
2017-11-26T05:33:49.304Z,1010.55
2017-11-26T05:34:49.324Z,1010.53
2017-11-26T05:35:49.335Z,1010.52
2017-11-26T05:36:49.351Z,1010.62
2017-11-26T05:37:49.367Z,1010.53
2017-11-26T05:38:49.382Z,1010.54
2017-11-26T05:39:49.398Z,1010.52
2017-11-26T05:40:49.414Z,1010.55
2017-11-26T05:41:49.430Z,1010.54
2017-11-26T05:42:49.447Z,1010.55
2017-11-26T05:43:49.460Z,1010.48
2017-11-26T05:44:49.476Z,1010.48
2017-11-26T05:45:49.492Z,1010.51
2017-11-26T05:46:49.509Z,1010.52
2017-11-26T05:47:49.523Z,1010.48
2017-11-26T05:48:49.547Z,1010.52
2017-11-26T05:49:49.554Z,1010.51
2017-11-26T05:50:49.572Z,1010.51
2017-11-26T05:51:49.586Z,1010.47
2017-11-26T05:52:49.601Z,1010.52
2017-11-26T05:53:49.616Z,1010.53
2017-11-26T05:54:49.632Z,1010.55
2017-11-26T05:55:49.649Z,1010.55
2017-11-26T05:56:49.664Z,1010.55
2017-11-26T05:57:49.680Z,1010.58
2017-11-26T05:58:49.695Z,1010.60
2017-11-26T05:59:49.711Z,1010.61
2017-11-26T06:00:49.732Z,1010.66
2017-11-26T06:01:49.741Z,1010.66
2017-11-26T06:02:49.758Z,1010.63
2017-11-26T06:03:49.772Z,1010.64
2017-11-26T06:04:49.793Z,1010.64
2017-11-26T06:05:49.804Z,1010.66
2017-11-26T06:06:49.820Z,1010.66
2017-11-26T06:07:49.836Z,1010.65
2017-11-26T06:08:49.858Z,1010.63
2017-11-26T06:09:49.866Z,1010.67
2017-11-26T06:10:49.884Z,1010.68
2017-11-26T06:11:49.898Z,1010.68
2017-11-26T06:12:49.920Z,1010.69
2017-11-26T06:13:49.931Z,1010.69
2017-11-26T06:14:49.945Z,1010.68
2017-11-26T06:15:49.961Z,1010.78
2017-11-26T06:16:49.977Z,1010.76
2017-11-26T06:17:49.992Z,1010.79
2017-11-26T06:18:50.008Z,1010.76
2017-11-26T06:19:50.024Z,1010.75
2017-11-26T06:20:50.039Z,1010.82
2017-11-26T06:21:50.056Z,1010.84
2017-11-26T06:22:50.071Z,1010.85
2017-11-26T06:23:50.086Z,1010.89
2017-11-26T06:24:50.102Z,1010.85
2017-11-26T06:25:50.119Z,1010.80
2017-11-26T06:26:50.134Z,1010.85
2017-11-26T06:27:50.149Z,1010.86
2017-11-26T06:28:50.166Z,1010.88
2017-11-26T06:29:50.187Z,1010.81
2017-11-26T06:30:50.252Z,1010.90
2017-11-26T06:31:50.212Z,1010.86
2017-11-26T06:32:50.236Z,1010.90
2017-11-26T06:33:50.244Z,1010.89
2017-11-26T06:34:50.261Z,1010.88
2017-11-26T06:35:50.275Z,1010.89
2017-11-26T06:36:50.291Z,1010.92
2017-11-26T06:37:50.307Z,1010.86
2017-11-26T06:38:50.322Z,1010.89
2017-11-26T06:39:50.340Z,1010.87
2017-11-26T06:40:50.356Z,1010.89
2017-11-26T06:41:50.372Z,1010.89
2017-11-26T06:42:50.387Z,1010.89
2017-11-26T06:43:50.402Z,1010.94
2017-11-26T06:44:50.417Z,1010.87
2017-11-26T06:45:50.634Z,1010.86
2017-11-26T06:46:50.450Z,1010.89
2017-11-26T06:47:50.464Z,1010.85
2017-11-26T06:48:50.482Z,1010.89
2017-11-26T06:49:50.504Z,1010.90
2017-11-26T06:50:50.515Z,1010.91
2017-11-26T06:51:50.729Z,1010.91
2017-11-26T06:52:50.593Z,1010.96
2017-11-26T06:53:50.558Z,1011.01
2017-11-26T06:54:50.730Z,1010.98
2017-11-26T06:55:50.590Z,1011.05
2017-11-26T06:56:50.632Z,1011.03
2017-11-26T06:57:50.622Z,1011.04
2017-11-26T06:58:50.643Z,1011.04
2017-11-26T06:59:50.653Z,1011.01
2017-11-26T07:00:50.670Z,1011.06
2017-11-26T07:01:50.686Z,1011.05
2017-11-26T07:02:50.702Z,1011.05
2017-11-26T07:03:50.719Z,1011.10
2017-11-26T07:04:50.739Z,1011.08
2017-11-26T07:05:50.751Z,1011.09
2017-11-26T07:06:50.767Z,1011.21
2017-11-26T07:07:50.781Z,1011.18
2017-11-26T07:08:50.806Z,1011.17
2017-11-26T07:09:50.814Z,1011.24
2017-11-26T07:10:50.830Z,1011.21
2017-11-26T07:11:50.844Z,1011.18
2017-11-26T07:12:50.862Z,1011.21
2017-11-26T07:13:50.879Z,1011.21
2017-11-26T07:14:50.892Z,1011.24
2017-11-26T07:15:50.908Z,1011.21
2017-11-26T07:16:50.923Z,1011.30
2017-11-26T07:17:50.940Z,1011.26
2017-11-26T07:18:50.957Z,1011.27
2017-11-26T07:19:50.971Z,1011.17
2017-11-26T07:20:50.987Z,1011.24
2017-11-26T07:21:51.154Z,1011.26
2017-11-26T07:22:51.020Z,1011.26
2017-11-26T07:23:51.034Z,1011.32
2017-11-26T07:24:51.052Z,1011.33
2017-11-26T07:25:51.070Z,1011.39
2017-11-26T07:26:51.082Z,1011.36
2017-11-26T07:27:51.121Z,1011.35
2017-11-26T07:28:51.115Z,1011.39
2017-11-26T07:29:51.130Z,1011.40
2017-11-26T07:30:51.146Z,1011.39
2017-11-26T07:31:51.162Z,1011.40
2017-11-26T07:32:51.180Z,1011.38
2017-11-26T07:33:51.194Z,1011.41
2017-11-26T07:34:51.219Z,1011.35
2017-11-26T07:35:51.226Z,1011.42
2017-11-26T07:36:51.242Z,1011.46
2017-11-26T07:37:51.258Z,1011.38
2017-11-26T07:38:51.276Z,1011.45
2017-11-26T07:39:51.289Z,1011.41
2017-11-26T07:40:51.305Z,1011.44
2017-11-26T07:41:51.329Z,1011.49
2017-11-26T07:42:51.339Z,1011.42
2017-11-26T07:43:51.354Z,1011.42
2017-11-26T07:44:51.373Z,1011.44
2017-11-26T07:45:51.391Z,1011.48
2017-11-26T07:46:51.404Z,1011.45
2017-11-26T07:47:51.418Z,1011.51
2017-11-26T07:48:51.435Z,1011.50
2017-11-26T07:49:51.458Z,1011.48
2017-11-26T07:50:51.467Z,1011.48
2017-11-26T07:51:51.484Z,1011.50
2017-11-26T07:52:51.500Z,1011.52
2017-11-26T07:53:51.517Z,1011.50
2017-11-26T07:54:51.532Z,1011.50
2017-11-26T07:55:51.547Z,1011.52
2017-11-26T07:56:51.564Z,1011.54
2017-11-26T07:57:51.581Z,1011.53
2017-11-26T07:58:51.597Z,1011.54
2017-11-26T07:59:51.618Z,1011.54
2017-11-26T08:00:51.629Z,1011.58
2017-11-26T08:01:51.645Z,1011.62
2017-11-26T08:02:51.660Z,1011.58
2017-11-26T08:03:51.676Z,1011.66
2017-11-26T08:04:51.692Z,1011.65
2017-11-26T08:05:51.709Z,1011.59
2017-11-26T08:06:51.726Z,1011.64
2017-11-26T08:07:51.741Z,1011.68
2017-11-26T08:08:51.758Z,1011.64
2017-11-26T08:09:51.772Z,1011.56
2017-11-26T08:10:51.789Z,1011.70
2017-11-26T08:11:51.805Z,1011.68
2017-11-26T08:12:51.821Z,1011.71
2017-11-26T08:13:51.838Z,1011.64
2017-11-26T08:14:51.855Z,1011.69
2017-11-26T08:15:51.868Z,1011.74
2017-11-26T08:16:51.885Z,1011.72
2017-11-26T08:17:51.902Z,1011.76
2017-11-26T08:18:51.921Z,1011.73
2017-11-26T08:19:51.940Z,1011.74
2017-11-26T08:20:51.950Z,1011.74
2017-11-26T08:21:51.968Z,1011.85
2017-11-26T08:22:51.984Z,1011.79
2017-11-26T08:23:51.999Z,1011.80
2017-11-26T08:24:52.015Z,1011.78
2017-11-26T08:25:52.032Z,1011.79
2017-11-26T08:26:52.047Z,1011.75
2017-11-26T08:27:52.061Z,1011.81
2017-11-26T08:28:52.082Z,1011.84
2017-11-26T08:29:52.096Z,1011.82
2017-11-26T08:30:52.113Z,1011.81
2017-11-26T08:31:52.127Z,1011.78
2017-11-26T08:32:52.145Z,1011.80
2017-11-26T08:33:52.167Z,1011.77
2017-11-26T08:34:52.177Z,1011.75
2017-11-26T08:35:52.193Z,1011.74
2017-11-26T08:36:52.208Z,1011.74
2017-11-26T08:37:52.227Z,1011.73
2017-11-26T08:38:52.242Z,1011.69
2017-11-26T08:39:52.258Z,1011.61
2017-11-26T08:40:52.274Z,1011.66
2017-11-26T08:41:52.293Z,1011.72
2017-11-26T08:42:52.309Z,1011.72
2017-11-26T08:43:52.324Z,1011.79
2017-11-26T08:44:52.346Z,1011.81
2017-11-26T08:45:52.357Z,1011.80
2017-11-26T08:46:52.373Z,1011.76
2017-11-26T08:47:52.391Z,1011.85
2017-11-26T08:48:52.405Z,1011.76
2017-11-26T08:49:52.422Z,1011.82
2017-11-26T08:50:52.439Z,1011.82
2017-11-26T08:51:52.454Z,1011.86
2017-11-26T08:52:52.479Z,1011.82
2017-11-26T08:53:52.488Z,1011.83
2017-11-26T08:54:52.510Z,1011.91
2017-11-26T08:55:52.522Z,1011.87
2017-11-26T08:56:52.537Z,1011.89
2017-11-26T08:57:52.554Z,1011.88
2017-11-26T08:58:52.571Z,1011.92
2017-11-26T08:59:52.588Z,1011.94
2017-11-26T09:00:52.605Z,1011.91
2017-11-26T09:01:52.621Z,1011.94
2017-11-26T09:02:52.637Z,1011.95
2017-11-26T09:03:52.652Z,1011.97
2017-11-26T09:04:52.673Z,1011.87
2017-11-26T09:05:52.686Z,1011.94
2017-11-26T09:06:52.703Z,1011.98
2017-11-26T09:07:52.719Z,1011.98
2017-11-26T09:08:52.736Z,1012.04
2017-11-26T09:09:52.752Z,1012.08
2017-11-26T09:10:52.769Z,1012.08
2017-11-26T09:11:52.787Z,1012.08
2017-11-26T09:12:52.802Z,1012.08
2017-11-26T09:13:52.829Z,1012.09
2017-11-26T09:14:52.836Z,1012.07
2017-11-26T09:15:52.852Z,1012.09
2017-11-26T09:16:52.868Z,1012.00
2017-11-26T09:17:52.886Z,1012.05
2017-11-26T09:18:52.907Z,1012.05
2017-11-26T09:19:52.919Z,1012.05
2017-11-26T09:20:52.936Z,1012.07
2017-11-26T09:21:52.952Z,1012.08
2017-11-26T09:22:52.969Z,1012.11
2017-11-26T09:23:52.985Z,1012.11
2017-11-26T09:24:53.002Z,1012.17
2017-11-26T09:25:53.026Z,1012.13
2017-11-26T09:26:53.037Z,1012.07
2017-11-26T09:27:53.052Z,1012.14
2017-11-26T09:28:53.068Z,1012.17
2017-11-26T09:29:53.085Z,1012.07
2017-11-26T09:30:53.102Z,1012.14
2017-11-26T09:31:53.118Z,1012.18
2017-11-26T09:32:53.135Z,1012.18
2017-11-26T09:33:53.152Z,1012.16
2017-11-26T09:34:53.169Z,1012.15
2017-11-26T09:35:53.187Z,1012.17
2017-11-26T09:36:53.207Z,1012.18
2017-11-26T09:37:53.218Z,1012.19
2017-11-26T09:38:53.269Z,1012.24
2017-11-26T09:39:53.252Z,1012.23
2017-11-26T09:40:53.271Z,1012.21
2017-11-26T09:41:53.289Z,1012.25
2017-11-26T09:42:53.309Z,1012.21
2017-11-26T09:43:53.324Z,1012.24
2017-11-26T09:44:53.348Z,1012.28
2017-11-26T09:45:53.359Z,1012.28
2017-11-26T09:46:53.372Z,1012.24
2017-11-26T09:47:53.393Z,1012.26
2017-11-26T09:48:53.403Z,1012.26
2017-11-26T09:49:53.420Z,1012.30
2017-11-26T09:50:53.438Z,1012.25
2017-11-26T09:51:53.452Z,1012.32
2017-11-26T09:52:53.470Z,1012.31
2017-11-26T09:53:53.487Z,1012.35
2017-11-26T09:54:53.505Z,1012.29
2017-11-26T09:55:53.521Z,1012.32
2017-11-26T09:56:53.538Z,1012.31
2017-11-26T09:57:53.556Z,1012.33
2017-11-26T09:58:53.572Z,1012.28
2017-11-26T09:59:53.589Z,1012.23
2017-11-26T10:00:53.606Z,1012.26
2017-11-26T10:01:53.624Z,1012.27
2017-11-26T10:02:53.641Z,1012.28
2017-11-26T10:03:53.656Z,1012.27
2017-11-26T10:04:53.673Z,1012.20
2017-11-26T10:05:53.690Z,1012.29
2017-11-26T10:06:53.709Z,1012.26
2017-11-26T10:07:53.724Z,1012.30
2017-11-26T10:08:53.742Z,1012.25
2017-11-26T10:09:53.760Z,1012.31
2017-11-26T10:10:53.776Z,1012.27
2017-11-26T10:11:53.793Z,1012.33
2017-11-26T10:12:53.809Z,1012.36
2017-11-26T10:13:53.826Z,1012.31
2017-11-26T10:14:53.844Z,1012.31
2017-11-26T10:15:53.875Z,1012.36
2017-11-26T10:16:53.878Z,1012.34
2017-11-26T10:17:53.896Z,1012.36
2017-11-26T10:18:53.912Z,1012.36
2017-11-26T10:19:53.928Z,1012.43
2017-11-26T10:20:53.946Z,1012.41
2017-11-26T10:21:53.964Z,1012.31
2017-11-26T10:22:53.980Z,1012.35
2017-11-26T10:23:53.996Z,1012.37
2017-11-26T10:24:54.014Z,1012.38
2017-11-26T10:25:54.031Z,1012.32
2017-11-26T10:26:54.049Z,1012.29
2017-11-26T10:27:54.066Z,1012.39
2017-11-26T10:28:54.082Z,1012.32
2017-11-26T10:29:54.108Z,1012.32
2017-11-26T10:30:54.116Z,1012.34
2017-11-26T10:31:54.134Z,1012.32
2017-11-26T10:32:54.153Z,1012.34
2017-11-26T10:33:54.168Z,1012.28
2017-11-26T10:34:54.186Z,1012.29
2017-11-26T10:35:54.202Z,1012.22
2017-11-26T10:36:54.227Z,1012.36
2017-11-26T10:37:54.237Z,1012.36
2017-11-26T10:38:54.253Z,1012.36
2017-11-26T10:39:54.270Z,1012.38
2017-11-26T10:40:54.287Z,1012.39
2017-11-26T10:41:54.305Z,1012.40
2017-11-26T10:42:54.322Z,1012.33
2017-11-26T10:43:54.338Z,1012.38
2017-11-26T10:44:54.356Z,1012.36
2017-11-26T10:45:54.374Z,1012.35
2017-11-26T10:46:54.395Z,1012.37
2017-11-26T10:47:54.406Z,1012.37
2017-11-26T10:48:54.425Z,1012.37
2017-11-26T10:49:54.441Z,1012.31
2017-11-26T10:50:54.461Z,1012.37
2017-11-26T10:51:54.476Z,1012.42
2017-11-26T10:52:54.494Z,1012.41
2017-11-26T10:53:54.512Z,1012.38
2017-11-26T10:54:54.527Z,1012.43
2017-11-26T10:55:54.546Z,1012.43
2017-11-26T10:56:54.562Z,1012.38
2017-11-26T10:57:54.579Z,1012.44
2017-11-26T10:58:54.597Z,1012.37
2017-11-26T10:59:54.614Z,1012.40
2017-11-26T11:00:54.631Z,1012.37
2017-11-26T11:01:54.647Z,1012.36
2017-11-26T11:02:54.666Z,1012.37
2017-11-26T11:03:54.681Z,1012.35
2017-11-26T11:04:54.698Z,1012.37
2017-11-26T11:05:54.717Z,1012.34
2017-11-26T11:06:54.734Z,1012.33
2017-11-26T11:07:54.751Z,1012.38
2017-11-26T11:08:54.767Z,1012.40
2017-11-26T11:09:54.786Z,1012.36
2017-11-26T11:10:54.802Z,1012.38
2017-11-26T11:11:54.818Z,1012.41
2017-11-26T11:12:54.836Z,1012.47
2017-11-26T11:13:54.854Z,1012.46
2017-11-26T11:14:54.871Z,1012.46
2017-11-26T11:15:54.889Z,1012.43
2017-11-26T11:16:54.905Z,1012.44
2017-11-26T11:17:54.946Z,1012.47
2017-11-26T11:18:54.941Z,1012.43
2017-11-26T11:19:54.955Z,1012.35
2017-11-26T11:20:54.973Z,1012.33
2017-11-26T11:21:54.990Z,1012.37
2017-11-26T11:22:55.008Z,1012.37
2017-11-26T11:23:55.024Z,1012.32
2017-11-26T11:24:55.042Z,1012.38
2017-11-26T11:25:55.058Z,1012.41
2017-11-26T11:26:55.077Z,1012.30
2017-11-26T11:27:55.093Z,1012.37
2017-11-26T11:28:55.111Z,1012.38
2017-11-26T11:29:55.128Z,1012.40
2017-11-26T11:30:55.145Z,1012.38
2017-11-26T11:31:55.169Z,1012.41
2017-11-26T11:32:55.180Z,1012.43
2017-11-26T11:33:55.198Z,1012.42
2017-11-26T11:34:55.215Z,1012.41
2017-11-26T11:35:55.231Z,1012.47
2017-11-26T11:36:55.247Z,1012.44
2017-11-26T11:37:55.265Z,1012.46
2017-11-26T11:38:55.284Z,1012.48
2017-11-26T11:39:55.300Z,1012.51
2017-11-26T11:40:55.317Z,1012.50
2017-11-26T11:41:55.334Z,1012.51
2017-11-26T11:42:55.352Z,1012.48
2017-11-26T11:43:55.368Z,1012.46
2017-11-26T11:44:55.393Z,1012.49
2017-11-26T11:45:55.403Z,1012.47
2017-11-26T11:46:55.422Z,1012.47
2017-11-26T11:47:55.437Z,1012.49
2017-11-26T11:48:55.454Z,1012.45
2017-11-26T11:49:55.473Z,1012.51
2017-11-26T11:50:55.490Z,1012.49
2017-11-26T11:51:55.506Z,1012.45
2017-11-26T11:52:55.524Z,1012.47
2017-11-26T11:53:55.540Z,1012.46
2017-11-26T11:54:55.559Z,1012.45
2017-11-26T11:55:55.575Z,1012.46
2017-11-26T11:56:55.593Z,1012.37
2017-11-26T11:57:55.609Z,1012.42
2017-11-26T11:58:55.628Z,1012.36
2017-11-26T11:59:55.644Z,1012.33
2017-11-26T12:00:55.666Z,1012.45
2017-11-26T12:01:55.679Z,1012.38
2017-11-26T12:02:55.697Z,1012.43
2017-11-26T12:03:55.713Z,1012.47
2017-11-26T12:04:55.729Z,1012.53
2017-11-26T12:05:55.746Z,1012.52